Time;durP1;ratioP1;P1;durP2;ratioP2;P2;SDS_P1;SDS_P2;PMS_P1;PMS_P2;Temp;Humidity;BMP_temperature;BMP_pressure;BME280_temperature;BME280_humidity;BME280_pressure;Samples;Min_cycle;Max_cycle;Signal;HPM_P1;HPM_P2
2024/01/23 00:04:49;;;;;;;0.00;0.00;;;;;;;-146.30;100.00;58188.94;10360810;28;20057;-86
2024/01/23 00:09:50;;;;;;;0.30;0.30;;;;;;;-146.30;100.00;58188.94;10377080;28;20053;-85
2024/01/23 00:14:52;;;;;;;0.43;0.43;;;;;;;-146.30;100.00;58188.94;10386082;28;20137;-89
2024/01/23 00:19:54;;;;;;;0.43;0.25;;;;;;;-146.30;100.00;58188.94;10384161;28;20046;-85
2024/01/23 00:24:56;;;;;;;0.10;0.10;;;;;;;-146.30;100.00;58188.94;10391534;28;20508;-84
2024/01/23 00:29:58;;;;;;;0.35;0.20;;;;;;;-146.30;100.00;58188.94;10352692;28;20497;-86
2024/01/23 00:35:00;;;;;;;0.30;0.28;;;;;;;-146.30;100.00;58188.94;10376709;28;20054;-84
2024/01/23 00:40:03;;;;;;;0.00;0.00;;;;;;;-146.30;100.00;58188.94;10374431;28;20054;-85
2024/01/23 00:45:05;;;;;;;0.00;0.00;;;;;;;-146.30;100.00;58188.94;10376443;28;20430;-87
2024/01/23 00:50:07;;;;;;;0.30;0.28;;;;;;;-146.30;100.00;58188.94;10358126;28;20121;-84
2024/01/23 00:55:10;;;;;;;8.30;0.20;;;;;;;-146.30;100.00;58188.94;10367347;28;20159;-84
2024/01/23 01:00:12;;;;;;;0.45;0.32;;;;;;;-146.30;100.00;58188.94;10382433;28;20435;-85
2024/01/23 01:05:14;;;;;;;3.22;0.85;;;;;;;-146.30;100.00;58188.94;10372910;28;20089;-85
2024/01/23 01:10:16;;;;;;;1.15;0.30;;;;;;;-146.30;100.00;58188.94;10358743;28;20050;-85
2024/01/23 01:15:17;;;;;;;0.40;0.22;;;;;;;-146.30;100.00;58188.94;10377749;28;20073;-83
2024/01/23 01:20:19;;;;;;;0.38;0.30;;;;;;;-146.30;100.00;58188.94;10367313;28;20381;-85
2024/01/23 01:25:21;;;;;;;1.30;0.20;;;;;;;-146.30;100.00;58188.94;10375110;28;20073;-86
2024/01/23 01:30:28;;;;;;;0.00;0.00;;;;;;;-146.30;100.00;58188.94;10352990;28;20401;-85
2024/01/23 01:35:29;;;;;;;0.00;0.00;;;;;;;-146.30;100.00;58188.94;10380304;28;20533;-85
2024/01/23 01:40:34;;;;;;;3.17;1.10;;;;;;;-146.30;100.00;58188.94;10355487;28;20499;-85
2024/01/23 01:45:38;;;;;;;0.20;0.20;;;;;;;-146.30;100.00;58188.94;10372447;28;20041;-84
2024/01/23 01:50:40;;;;;;;0.10;0.10;;;;;;;-146.30;100.00;58188.94;10350775;28;20519;-84
2024/01/23 01:55:43;;;;;;;0.00;0.00;;;;;;;-146.30;100.00;58188.94;10357700;28;20103;-83
2024/01/23 02:00:45;;;;;;;0.00;0.00;;;;;;;-146.30;100.00;58188.94;10366177;28;20092;-83
2024/01/23 02:05:48;;;;;;;0.00;0.00;;;;;;;-146.30;100.00;58188.94;10374047;28;20049;-84
2024/01/23 02:10:50;;;;;;;6.32;0.50;;;;;;;-146.30;100.00;58188.94;10382676;28;20038;-84
2024/01/23 02:15:52;;;;;;;0.55;0.13;;;;;;;-146.30;100.00;58188.94;10372104;28;20061;-84
2024/01/23 02:20:54;;;;;;;0.15;0.08;;;;;;;-146.30;100.00;58188.94;10377428;28;20384;-85
2024/01/23 02:25:56;;;;;;;0.40;0.40;;;;;;;-146.30;100.00;58188.94;10370354;28;20049;-84
2024/01/23 02:30:58;;;;;;;2.55;0.73;;;;;;;-146.30;100.00;58188.94;10357816;28;20107;-83
2024/01/23 02:36:00;;;;;;;0.00;0.00;;;;;;;-146.30;100.00;58188.94;10363876;28;20053;-83
2024/01/23 02:41:03;;;;;;;0.00;0.00;;;;;;;-146.30;100.00;58188.94;10363674;28;20158;-84
2024/01/23 02:46:04;;;;;;;0.00;0.00;;;;;;;-146.30;100.00;58188.94;10365642;28;20042;-84
2024/01/23 02:51:07;;;;;;;0.30;0.30;;;;;;;-146.30;100.00;58188.94;10366089;28;20046;-84
2024/01/23 02:56:09;;;;;;;0.10;0.10;;;;;;;-146.30;100.00;58188.94;10366956;28;20050;-84
2024/01/23 03:01:11;;;;;;;0.00;0.00;;;;;;;-146.30;100.00;58188.94;10374418;28;20136;-85
2024/01/23 03:06:13;;;;;;;0.08;0.08;;;;;;;-146.30;100.00;58188.94;10356240;28;20408;-84
2024/01/23 03:11:15;;;;;;;2.05;0.68;;;;;;;-146.30;100.00;58188.94;10384968;28;20049;-84
2024/01/23 03:16:16;;;;;;;0.00;0.00;;;;;;;-146.30;100.00;58188.94;10358121;28;20490;-84
2024/01/23 03:21:18;;;;;;;0.00;0.00;;;;;;;-146.30;100.00;58188.94;10369399;28;20488;-85
2024/01/23 03:26:20;;;;;;;0.00;0.00;;;;;;;-146.30;100.00;58188.94;10367365;28;20076;-84
2024/01/23 03:31:26;;;;;;;0.20;0.10;;;;;;;-146.30;100.00;58188.94;10360061;28;20056;-83
2024/01/23 03:36:28;;;;;;;0.52;0.20;;;;;;;-146.30;100.00;58188.94;10367265;28;20209;-83
2024/01/23 03:41:30;;;;;;;1.77;0.68;;;;;;;-146.30;100.00;58188.94;10382250;28;20057;-85
2024/01/23 03:46:32;;;;;;;0.00;0.00;;;;;;;-146.30;100.00;58188.94;10381885;28;20069;-84
2024/01/23 03:51:34;;;;;;;0.10;0.10;;;;;;;-146.30;100.00;58188.94;10389656;28;20133;-85
2024/01/23 03:56:36;;;;;;;3.00;0.35;;;;;;;-146.30;100.00;58188.94;10355666;28;20052;-84
2024/01/23 04:01:38;;;;;;;0.38;0.38;;;;;;;-146.30;100.00;58188.94;10357317;28;20112;-83
2024/01/23 04:06:39;;;;;;;0.00;0.00;;;;;;;-146.30;100.00;58188.94;10379429;28;20522;-83
2024/01/23 04:11:45;;;;;;;0.00;0.00;;;;;;;-146.30;100.00;58188.94;10383145;28;20596;-83
2024/01/23 04:16:47;;;;;;;0.52;0.17;;;;;;;-146.30;100.00;58188.94;10378170;28;20489;-84
2024/01/23 04:21:48;;;;;;;0.28;0.10;;;;;;;-146.30;100.00;58188.94;10353976;28;20068;-84
2024/01/23 04:26:50;;;;;;;0.25;0.25;;;;;;;-146.30;100.00;58188.94;10374174;28;20494;-84
2024/01/23 04:31:52;;;;;;;0.00;0.00;;;;;;;-146.30;100.00;58188.94;10396440;28;20161;-84
2024/01/23 04:36:54;;;;;;;2.65;0.70;;;;;;;-146.30;100.00;58188.94;10378176;28;20034;-85
2024/01/23 04:41:56;;;;;;;0.30;0.30;;;;;;;-146.30;100.00;58188.94;10371083;28;20398;-84
2024/01/23 04:46:57;;;;;;;5.05;0.70;;;;;;;-146.30;100.00;58188.94;10393489;28;20123;-85
2024/01/23 04:51:59;;;;;;;0.63;0.25;;;;;;;-146.30;100.00;58188.94;10352560;28;20077;-84
2024/01/23 04:57:02;;;;;;;0.00;0.00;;;;;;;-146.30;100.00;58188.94;10366049;28;20064;-83
2024/01/23 05:02:05;;;;;;;0.25;0.20;;;;;;;-146.30;100.00;58188.94;10371908;28;20132;-82
2024/01/23 05:07:06;;;;;;;0.65;0.55;;;;;;;-146.30;100.00;58188.94;10373158;28;20464;-84
2024/01/23 05:12:09;;;;;;;8.48;0.57;;;;;;;-146.30;100.00;58188.94;10376018;28;20073;-85
2024/01/23 05:17:11;;;;;;;0.00;0.00;;;;;;;-146.30;100.00;58188.94;10368649;28;20057;-84
2024/01/23 05:22:13;;;;;;;0.00;0.00;;;;;;;-146.30;100.00;58188.94;10362563;28;20073;-84
2024/01/23 05:27:15;;;;;;;1.17;0.22;;;;;;;-146.30;100.00;58188.94;10355842;28;20046;-84
2024/01/23 05:32:17;;;;;;;0.00;0.00;;;;;;;-146.30;100.00;58188.94;10385378;28;20132;-85
2024/01/23 05:37:19;;;;;;;4.80;2.38;;;;;;;-146.30;100.00;58188.94;10341551;28;20041;-83
2024/01/23 05:42:21;;;;;;;0.00;0.00;;;;;;;-146.30;100.00;58188.94;10374693;28;20505;-83
2024/01/23 05:47:23;;;;;;;2.83;0.40;;;;;;;-146.30;100.00;58188.94;10355678;28;20049;-83
2024/01/23 05:52:24;;;;;;;0.00;0.00;;;;;;;-146.30;100.00;58188.94;10366448;28;20143;-84
2024/01/23 05:57:26;;;;;;;0.00;0.00;;;;;;;-146.30;100.00;58188.94;10373072;28;20786;-85
2024/01/23 06:02:28;;;;;;;0.50;0.15;;;;;;;-146.30;100.00;58188.94;10359545;28;20133;-83
2024/01/23 06:07:30;;;;;;;0.17;0.10;;;;;;;-146.30;100.00;58188.94;10348374;28;20046;-82
2024/01/23 06:12:32;;;;;;;0.00;0.00;;;;;;;-146.30;100.00;58188.94;10356554;28;20054;-83
2024/01/23 06:17:34;;;;;;;1.75;0.55;;;;;;;-146.30;100.00;58188.94;10368747;28;20044;-83
2024/01/23 06:22:36;;;;;;;0.00;0.00;;;;;;;-146.30;100.00;58188.94;10380496;28;20050;-84
2024/01/23 06:27:38;;;;;;;0.00;0.00;;;;;;;-146.30;100.00;58188.94;10377762;28;20046;-85
2024/01/23 06:32:41;;;;;;;0.10;0.10;;;;;;;-146.30;100.00;58188.94;10382987;28;20112;-84
2024/01/23 06:37:42;;;;;;;2.13;0.98;;;;;;;-146.30;100.00;58188.94;10363974;28;20081;-84
2024/01/23 06:42:44;;;;;;;0.30;0.20;;;;;;;-146.30;100.00;58188.94;10389389;28;20504;-83
2024/01/23 06:47:46;;;;;;;0.10;0.05;;;;;;;-146.30;100.00;58188.94;10346788;28;20089;-84
2024/01/23 06:52:48;;;;;;;0.45;0.45;;;;;;;-146.30;100.00;58188.94;10386529;28;20048;-82
2024/01/23 06:57:50;;;;;;;0.00;0.00;;;;;;;-146.30;100.00;58188.94;10363497;28;20411;-84
2024/01/23 07:02:52;;;;;;;0.43;0.30;;;;;;;-146.30;100.00;58188.94;10379374;28;20554;-83
2024/01/23 07:07:54;;;;;;;0.40;0.40;;;;;;;-146.30;100.00;58188.94;10392941;28;20134;-85
2024/01/23 07:12:56;;;;;;;0.00;0.00;;;;;;;-146.30;100.00;58188.94;10375554;28;20140;-84
2024/01/23 07:17:58;;;;;;;0.00;0.00;;;;;;;-146.30;100.00;58188.94;10389769;28;20046;-84
2024/01/23 07:22:59;;;;;;;0.00;0.00;;;;;;;-146.30;100.00;58188.94;10362569;28;20052;-85
2024/01/23 07:28:01;;;;;;;0.00;0.00;;;;;;;-146.30;100.00;58188.94;10343081;28;20527;-83
2024/01/23 07:33:03;;;;;;;0.45;0.45;;;;;;;-146.30;100.00;58188.94;10363812;28;20123;-84
2024/01/23 07:38:10;;;;;;;0.50;0.50;;;;;;;-146.30;100.00;58188.94;10364503;28;20069;-84
2024/01/23 07:43:12;;;;;;;0.30;0.20;;;;;;;-146.30;100.00;58188.94;10369539;28;20054;-84
2024/01/23 07:48:14;;;;;;;1.30;0.08;;;;;;;-146.30;100.00;58188.94;10397248;28;20128;-84
2024/01/23 07:53:16;;;;;;;1.75;0.65;;;;;;;-146.30;100.00;58188.94;10381546;28;20047;-84
2024/01/23 07:58:18;;;;;;;0.10;0.10;;;;;;;-146.30;100.00;58188.94;10383003;28;20136;-88
2024/01/23 08:03:21;;;;;;;0.63;0.47;;;;;;;-146.30;100.00;58188.94;10386393;28;20042;-86
2024/01/23 08:08:23;;;;;;;0.55;0.30;;;;;;;-146.30;100.00;58188.94;10381037;28;20396;-84
2024/01/23 08:13:25;;;;;;;0.20;0.17;;;;;;;-146.30;100.00;58188.94;10377651;28;20046;-86
2024/01/23 08:18:26;;;;;;;0.20;0.20;;;;;;;-146.30;100.00;58188.94;10375721;28;20042;-85
2024/01/23 08:23:28;;;;;;;0.00;0.00;;;;;;;-146.30;100.00;58188.94;10372627;28;20077;-85
2024/01/23 08:28:30;;;;;;;0.00;0.00;;;;;;;-146.30;100.00;58188.94;10365111;28;20042;-85
2024/01/23 08:33:33;;;;;;;12.45;0.60;;;;;;;-146.30;100.00;58188.94;10379464;28;20054;-84
2024/01/23 08:38:35;;;;;;;0.57;0.32;;;;;;;-146.30;100.00;58188.94;10387676;28;20421;-83
2024/01/23 08:43:36;;;;;;;0.08;0.08;;;;;;;-146.30;100.00;58188.94;10394629;28;20042;-84
2024/01/23 08:48:39;;;;;;;0.00;0.00;;;;;;;-146.30;100.00;58188.94;10385128;28;20057;-83
2024/01/23 08:53:41;;;;;;;0.00;0.00;;;;;;;-146.30;100.00;58188.94;10381386;28;20042;-84
2024/01/23 08:58:43;;;;;;;0.00;0.00;;;;;;;-146.30;100.00;58188.94;10357088;28;20059;-85
2024/01/23 09:03:44;;;;;;;0.32;0.30;;;;;;;-146.30;100.00;58188.94;10384653;28;20072;-83
2024/01/23 09:08:46;;;;;;;0.30;0.30;;;;;;;-146.30;100.00;58188.94;10366620;28;20050;-84
2024/01/23 09:13:48;;;;;;;0.00;0.00;;;;;;;-146.30;100.00;58188.94;10368814;28;20519;-84
2024/01/23 09:18:50;;;;;;;0.00;0.00;;;;;;;-146.30;100.00;58188.94;10370876;28;20053;-88
2024/01/23 09:23:52;;;;;;;3.25;0.50;;;;;;;-146.30;100.00;58188.94;10367009;28;20057;-84
2024/01/23 09:28:54;;;;;;;0.22;0.10;;;;;;;-146.30;100.00;58188.94;10370060;28;20501;-85
2024/01/23 09:33:57;;;;;;;6.05;0.55;;;;;;;-146.30;100.00;58188.94;10376853;28;20060;-84
2024/01/23 09:38:59;;;;;;;0.00;0.00;;;;;;;-146.30;100.00;58188.94;10378624;28;20034;-85
2024/01/23 09:44:01;;;;;;;0.00;0.00;;;;;;;-146.30;100.00;58188.94;10379682;28;20041;-85
2024/01/23 09:49:03;;;;;;;0.20;0.20;;;;;;;-146.30;100.00;58188.94;10359748;28;20112;-84
2024/01/23 09:54:07;;;;;;;0.30;0.30;;;;;;;-146.30;100.00;58188.94;10371563;28;20133;-87
2024/01/23 09:59:10;;;;;;;0.38;0.38;;;;;;;-146.30;100.00;58188.94;10398320;28;20041;-86
2024/01/23 10:04:15;;;;;;;0.00;0.00;;;;;;;-146.30;100.00;58188.94;10393366;28;20060;-87
2024/01/23 10:09:18;;;;;;;0.00;0.00;;;;;;;-146.30;100.00;58188.94;10379469;28;20056;-85
2024/01/23 10:14:20;;;;;;;0.32;0.32;;;;;;;-146.30;100.00;58188.94;10373436;28;20056;-84
2024/01/23 10:19:24;;;;;;;0.30;0.30;;;;;;;-146.30;100.00;58188.94;10387318;28;20555;-85
2024/01/23 10:24:29;;;;;;;0.10;0.10;;;;;;;-146.30;100.00;58188.94;10386940;28;20096;-84
2024/01/23 10:29:30;;;;;;;0.82;0.75;;;;;;;-146.30;100.00;58188.94;10362404;28;20073;-86
2024/01/23 10:34:32;;;;;;;1.48;1.08;;;;;;;-146.30;100.00;58188.94;10376043;28;20471;-88
2024/01/23 10:39:35;;;;;;;0.00;0.00;;;;;;;-146.30;100.00;58188.94;10375312;28;20100;-88
2024/01/23 10:44:40;;;;;;;1.15;0.75;;;;;;;-146.30;100.00;58188.94;10370161;28;20056;-87
2024/01/23 10:49:42;;;;;;;1.55;0.68;;;;;;;-146.30;100.00;58188.94;10361337;28;20056;-86
2024/01/23 10:54:46;;;;;;;0.10;0.10;;;;;;;-146.30;100.00;58188.94;10380012;28;20053;-86
2024/01/23 10:59:50;;;;;;;3.53;1.05;;;;;;;-146.30;100.00;58188.94;10375179;28;20052;-84
2024/01/23 11:04:53;;;;;;;2.42;1.30;;;;;;;-146.30;100.00;58188.94;10385431;28;20060;-85
2024/01/23 11:10:15;;;;;;;0.00;0.00;;;;;;;-146.30;100.00;58188.94;10359518;28;20074;-87
2024/01/23 11:15:17;;;;;;;;;;;;;;;-146.30;100.00;58188.94;10382091;28;20068;-87
2024/01/23 11:20:19;;;;;;;0.65;0.65;;;;;;;-146.30;100.00;58188.94;10383675;28;19929;-84
2024/01/23 11:25:23;;;;;;;0.45;0.38;;;;;;;-146.30;100.00;58188.94;10383656;28;20081;-84
2024/01/23 11:30:25;;;;;;;1.02;0.28;;;;;;;-146.30;100.00;58188.94;10395219;28;20144;-85
2024/01/23 11:35:27;;;;;;;0.30;0.30;;;;;;;-146.30;100.00;58188.94;10393881;28;20135;-86
2024/01/23 11:40:34;;;;;;;3.53;0.55;;;;;;;-146.30;100.00;58188.94;10367761;28;20049;-85
2024/01/23 11:45:37;;;;;;;0.45;0.32;;;;;;;-146.30;100.00;58188.94;10373183;28;20525;-88
2024/01/23 11:50:44;;;;;;;5.00;1.00;;;;;;;-146.30;100.00;58188.94;10363743;28;20446;-84
2024/01/23 11:55:46;;;;;;;0.10;0.10;;;;;;;-146.30;100.00;58188.94;10381505;28;20077;-84
2024/01/23 12:00:48;;;;;;;0.20;0.10;;;;;;;-146.30;100.00;58188.94;10383287;28;20474;-84
2024/01/23 12:05:51;;;;;;;0.45;0.45;;;;;;;-146.30;100.00;58188.94;10383890;28;20049;-86
2024/01/23 12:10:54;;;;;;;3.78;0.70;;;;;;;-146.30;100.00;58188.94;10379871;28;20057;-87
2024/01/23 12:15:56;;;;;;;0.55;0.28;;;;;;;-146.30;100.00;58188.94;10384491;28;20061;-84
2024/01/23 12:20:58;;;;;;;0.30;0.30;;;;;;;-146.30;100.00;58188.94;10369203;28;20077;-84
2024/01/23 12:26:00;;;;;;;12.65;0.65;;;;;;;-146.30;100.00;58188.94;10374301;28;20070;-85
2024/01/23 12:31:14;;;;;;;5.63;0.40;;;;;;;-146.30;100.00;58188.94;10384909;28;20084;-85
2024/01/23 12:36:16;;;;;;;0.25;0.15;;;;;;;-146.30;100.00;58188.94;10373753;28;20056;-86
2024/01/23 12:41:18;;;;;;;1.25;0.35;;;;;;;-146.30;100.00;58188.94;10368517;28;20411;-84
2024/01/23 12:46:21;;;;;;;0.50;0.50;;;;;;;-146.30;100.00;58188.94;10401020;28;20042;-85
2024/01/23 12:51:29;;;;;;;0.20;0.20;;;;;;;-146.30;100.00;58188.94;10360318;28;20394;-85
2024/01/23 12:56:30;;;;;;;1.85;1.15;;;;;;;-146.30;100.00;58188.94;10376175;28;20049;-85
2024/01/23 13:01:32;;;;;;;1.45;1.25;;;;;;;-146.30;100.00;58188.94;10352500;28;20057;-85
2024/01/23 13:06:34;;;;;;;0.10;0.10;;;;;;;-146.30;100.00;58188.94;10383751;28;20405;-85
2024/01/23 13:11:41;;;;;;;0.20;0.13;;;;;;;-146.30;100.00;58188.94;10373938;28;20046;-86
2024/01/23 13:16:42;;;;;;;4.85;0.20;;;;;;;-146.30;100.00;58188.94;10384539;28;20494;-85
2024/01/23 13:21:44;;;;;;;2.92;0.15;;;;;;;-146.30;100.00;58188.94;10358552;28;20077;-85
2024/01/23 13:26:47;;;;;;;3.25;0.60;;;;;;;-146.30;100.00;58188.94;10380956;28;20049;-87
2024/01/23 13:31:51;;;;;;;1.55;0.30;;;;;;;-146.30;100.00;58188.94;10369661;28;20084;-86
2024/01/23 13:36:53;;;;;;;1.90;0.45;;;;;;;-146.30;100.00;58188.94;10362660;28;20144;-86
2024/01/23 13:41:57;;;;;;;0.20;0.20;;;;;;;-146.30;100.00;58188.94;10357932;28;20052;-87
2024/01/23 13:46:58;;;;;;;2.13;1.95;;;;;;;-146.30;100.00;58188.94;10367468;28;20064;-86
2024/01/23 13:52:00;;;;;;;0.22;0.10;;;;;;;-146.30;100.00;58188.94;10384250;28;20123;-87
2024/01/23 13:57:02;;;;;;;0.28;0.28;;;;;;;-146.30;100.00;58188.94;10383434;28;20136;-86
2024/01/23 14:02:05;;;;;;;3.70;1.75;;;;;;;-146.30;100.00;58188.94;10389342;28;20136;-86
2024/01/23 14:07:07;;;;;;;0.28;0.28;;;;;;;-146.30;100.00;58188.94;10385225;28;20041;-85
2024/01/23 14:12:11;;;;;;;0.80;0.38;;;;;;;-146.30;100.00;58188.94;10387624;28;20049;-84
2024/01/23 14:17:13;;;;;;;0.43;0.20;;;;;;;-146.30;100.00;58188.94;10388598;28;20054;-85
2024/01/23 14:22:16;;;;;;;1.20;0.38;;;;;;;-146.30;100.00;58188.94;10365676;28;20178;-88
2024/01/23 14:27:18;;;;;;;0.10;0.10;;;;;;;-146.30;100.00;58188.94;10350561;28;20061;-86
2024/01/23 14:32:20;;;;;;;0.00;0.00;;;;;;;-146.30;100.00;58188.94;10362890;28;20074;-85
2024/01/23 14:37:27;;;;;;;0.40;0.40;;;;;;;-146.30;100.00;58188.94;10366206;28;20152;-85
2024/01/23 14:42:35;;;;;;;0.10;0.10;;;;;;;-146.30;100.00;58188.94;10381414;28;20049;-84
2024/01/23 14:47:37;;;;;;;3.63;1.00;;;;;;;-146.30;100.00;58188.94;10360530;28;20057;-86
2024/01/23 14:52:39;;;;;;;1.15;0.40;;;;;;;-146.30;100.00;58188.94;10367259;28;20050;-86
2024/01/23 14:57:42;;;;;;;0.00;0.00;;;;;;;-146.30;100.00;58188.94;10366826;28;20148;-87
2024/01/23 15:02:46;;;;;;;2.80;1.83;;;;;;;-146.30;100.00;58188.94;10386668;28;20089;-87
2024/01/23 15:07:48;;;;;;;4.90;0.55;;;;;;;-146.30;100.00;58188.94;10361863;28;20046;-86
2024/01/23 15:12:50;;;;;;;0.52;0.32;;;;;;;-146.30;100.00;58188.94;10379645;28;20053;-86
2024/01/23 15:17:54;;;;;;;11.77;0.60;;;;;;;-146.30;100.00;58188.94;10363005;28;20131;-86
2024/01/23 15:22:57;;;;;;;5.68;1.38;;;;;;;-146.30;100.00;58188.94;10390875;28;20045;-86
2024/01/23 15:27:59;;;;;;;1.00;0.28;;;;;;;-146.30;100.00;58188.94;10378000;28;20049;-85
2024/01/23 15:33:01;;;;;;;0.00;0.00;;;;;;;-146.30;100.00;58188.94;10392649;28;20053;-85
2024/01/23 15:38:03;;;;;;;4.30;0.22;;;;;;;-146.30;100.00;58188.94;10389520;28;20053;-85
2024/01/23 15:43:08;;;;;;;0.15;0.10;;;;;;;-146.30;100.00;58188.94;10390033;28;20050;-85
2024/01/23 15:48:14;;;;;;;13.00;0.60;;;;;;;-146.30;100.00;58188.94;10374265;28;20077;-86
2024/01/23 15:53:16;;;;;;;1.85;0.85;;;;;;;-146.30;100.00;58188.94;10382156;28;20551;-85
2024/01/23 15:58:18;;;;;;;0.17;0.17;;;;;;;-146.30;100.00;58188.94;10366639;28;20041;-85
2024/01/23 16:03:20;;;;;;;3.20;0.47;;;;;;;-146.30;100.00;58188.94;10385482;28;20081;-84
2024/01/23 16:08:21;;;;;;;0.38;0.08;;;;;;;-146.30;100.00;58188.94;10378187;28;20080;-85
2024/01/23 16:13:23;;;;;;;0.73;0.70;;;;;;;-146.30;100.00;58188.94;10377297;28;20045;-85
2024/01/23 16:18:25;;;;;;;1.02;0.88;;;;;;;-146.30;100.00;58188.94;10357064;28;20136;-86
2024/01/23 16:23:28;;;;;;;20.38;0.47;;;;;;;-146.30;100.00;58188.94;10376338;28;20056;-85
2024/01/23 16:28:29;;;;;;;0.60;0.45;;;;;;;-146.30;100.00;58188.94;10386992;28;20053;-86
2024/01/23 16:33:31;;;;;;;0.20;0.20;;;;;;;-146.30;100.00;58188.94;10394738;28;20132;-86
2024/01/23 16:38:33;;;;;;;0.28;0.28;;;;;;;-146.30;100.00;58188.94;10362514;28;20061;-86
2024/01/23 16:43:35;;;;;;;0.10;0.10;;;;;;;-146.30;100.00;58188.94;10379643;28;20042;-86
2024/01/23 16:48:37;;;;;;;2.78;0.30;;;;;;;-146.30;100.00;58188.94;10387229;28;20052;-85
2024/01/23 16:53:38;;;;;;;7.57;0.75;;;;;;;-146.30;100.00;58188.94;10371101;28;20100;-86
2024/01/23 16:58:42;;;;;;;0.15;0.15;;;;;;;-146.30;100.00;58188.94;10366224;28;20320;-86
2024/01/23 17:03:44;;;;;;;0.20;0.20;;;;;;;-146.30;100.00;58188.94;10377725;28;20137;-85
2024/01/23 17:08:46;;;;;;;0.20;0.10;;;;;;;-146.30;100.00;58188.94;10379022;28;20049;-86
2024/01/23 17:13:49;;;;;;;1.10;0.30;;;;;;;-146.30;100.00;58188.94;10382852;28;20103;-86
2024/01/23 17:19:03;;;;;;;0.28;0.20;;;;;;;-146.30;100.00;58188.94;10359837;28;20046;-86
2024/01/23 17:24:06;;;;;;;0.10;0.10;;;;;;;-146.30;100.00;58188.94;10381896;28;20300;-87
2024/01/23 17:29:08;;;;;;;0.00;0.00;;;;;;;-146.30;100.00;58188.94;10362263;28;20050;-86
2024/01/23 17:34:12;;;;;;;0.28;0.28;;;;;;;-146.30;100.00;58188.94;10374395;28;20085;-85
2024/01/23 17:39:14;;;;;;;0.30;0.20;;;;;;;-146.30;100.00;58188.94;10377110;28;20065;-86
2024/01/23 17:44:17;;;;;;;0.08;0.00;;;;;;;-146.30;100.00;58188.94;10371315;28;20056;-86
2024/01/23 17:49:19;;;;;;;0.25;0.05;;;;;;;-146.30;100.00;58188.94;10387523;28;20048;-87
2024/01/23 17:54:21;;;;;;;0.00;0.00;;;;;;;-146.30;100.00;58188.94;10390713;28;20060;-88
2024/01/23 17:59:23;;;;;;;0.10;0.10;;;;;;;-146.30;100.00;58188.94;10363457;28;20100;-90
2024/01/23 18:04:24;;;;;;;0.20;0.10;;;;;;;-146.30;100.00;58188.94;10386782;28;20056;-86
2024/01/23 18:09:26;;;;;;;2.00;0.85;;;;;;;-146.30;100.00;58188.94;10369942;28;20046;-88
2024/01/23 18:14:29;;;;;;;0.40;0.40;;;;;;;-146.30;100.00;58188.94;10392957;28;20534;-88
2024/01/23 18:19:31;;;;;;;5.38;0.43;;;;;;;-146.30;100.00;58188.94;10405929;28;20232;-87
2024/01/23 18:24:33;;;;;;;0.00;0.00;;;;;;;-146.30;100.00;58188.94;10382328;28;20076;-89
2024/01/23 18:29:35;;;;;;;0.73;0.50;;;;;;;-146.30;100.00;58188.94;10370324;28;20045;-85
2024/01/23 18:34:37;;;;;;;0.30;0.17;;;;;;;-146.30;100.00;58188.94;10385659;28;20045;-86
2024/01/23 18:39:39;;;;;;;0.63;0.13;;;;;;;-146.30;100.00;58188.94;10387825;28;20045;-87
2024/01/23 18:44:41;;;;;;;0.00;0.00;;;;;;;-146.30;100.00;58188.94;10389150;28;20057;-89
2024/01/23 18:49:43;;;;;;;0.98;0.43;;;;;;;-146.30;100.00;58188.94;10384378;28;20049;-89
2024/01/23 18:54:44;;;;;;;0.00;0.00;;;;;;;-146.30;100.00;58188.94;10384295;28;20049;-87
2024/01/23 18:59:47;;;;;;;0.30;0.30;;;;;;;-146.30;100.00;58188.94;10358731;28;20480;-90
2024/01/23 19:04:49;;;;;;;0.80;0.57;;;;;;;-146.30;100.00;58188.94;10410822;28;20053;-90
2024/01/23 19:09:51;;;;;;;15.10;0.43;;;;;;;-146.30;100.00;58188.94;10380525;28;20489;-88
2024/01/23 19:14:53;;;;;;;0.80;0.38;;;;;;;-146.30;100.00;58188.94;10376821;28;20489;-90
2024/01/23 19:19:56;;;;;;;0.17;0.17;;;;;;;-146.30;100.00;58188.94;10366759;28;20037;-90
2024/01/23 19:24:58;;;;;;;0.52;0.20;;;;;;;-146.30;100.00;58188.94;10363815;28;20050;-89
2024/01/23 19:30:00;;;;;;;0.00;0.00;;;;;;;-146.30;100.00;58188.94;10354719;28;20065;-91
2024/01/23 19:35:04;;;;;;;0.30;0.22;;;;;;;-146.30;100.00;58188.94;10398860;28;20484;-90
2024/01/23 19:40:06;;;;;;;0.00;0.00;;;;;;;-146.30;100.00;58188.94;10387578;28;20045;-92
2024/01/23 19:45:08;;;;;;;0.68;0.43;;;;;;;-146.30;100.00;58188.94;10386103;28;20473;-91
2024/01/23 19:50:10;;;;;;;0.20;0.13;;;;;;;-146.30;100.00;58188.94;10385188;28;20099;-89
2024/01/23 19:55:16;;;;;;;0.00;0.00;;;;;;;-146.30;100.00;58188.94;10381141;28;20046;-91
2024/01/23 20:00:19;;;;;;;0.10;0.08;;;;;;;-146.30;100.00;58188.94;10371403;28;20042;-91
2024/01/23 20:05:21;;;;;;;0.50;0.50;;;;;;;-146.30;100.00;58188.94;10392811;28;20128;-88
2024/01/23 20:10:25;;;;;;;5.40;0.75;;;;;;;-146.30;100.00;58188.94;10399760;28;20113;-89
2024/01/23 20:15:27;;;;;;;0.32;0.25;;;;;;;-146.30;100.00;58188.94;10389941;28;20128;-92
2024/01/23 20:20:28;;;;;;;0.13;0.13;;;;;;;-146.30;100.00;58188.94;10399029;28;20069;-89
2024/01/23 20:25:32;;;;;;;0.30;0.30;;;;;;;-146.30;100.00;58188.94;10396823;28;20516;-90
2024/01/23 20:30:33;;;;;;;1.75;0.65;;;;;;;-146.30;100.00;58188.94;10366999;28;20046;-91
2024/01/23 20:35:35;;;;;;;0.10;0.10;;;;;;;-146.30;100.00;58188.94;10389286;28;20050;-89
2024/01/23 20:40:38;;;;;;;0.40;0.40;;;;;;;-146.30;100.00;58188.94;10380360;28;20148;-91
2024/01/23 20:45:40;;;;;;;0.35;0.15;;;;;;;-146.30;100.00;58188.94;10391618;28;20045;-89
2024/01/23 20:50:42;;;;;;;0.00;0.00;;;;;;;-146.30;100.00;58188.94;10375662;28;20045;-91
2024/01/23 20:55:43;;;;;;;2.97;1.30;;;;;;;-146.30;100.00;58188.94;10398996;28;20052;-91
2024/01/23 21:00:45;;;;;;;1.63;0.40;;;;;;;-146.30;100.00;58188.94;10369264;28;20080;-89
2024/01/23 21:05:47;;;;;;;0.20;0.10;;;;;;;-146.30;100.00;58188.94;10395264;28;20055;-90
2024/01/23 21:10:49;;;;;;;0.88;0.47;;;;;;;-146.30;100.00;58188.94;10400513;28;20495;-93
2024/01/23 21:15:51;;;;;;;0.52;0.45;;;;;;;-146.30;100.00;58188.94;10393182;28;20077;-89
2024/01/23 21:20:53;;;;;;;1.40;1.02;;;;;;;-146.30;100.00;58188.94;10373892;28;20452;-88
2024/01/23 21:25:56;;;;;;;0.63;0.40;;;;;;;-146.30;100.00;58188.94;10380164;28;20058;-90
2024/01/23 21:30:58;;;;;;;0.85;0.85;;;;;;;-146.30;100.00;58188.94;10395887;28;20038;-91
2024/01/23 21:36:00;;;;;;;0.65;0.65;;;;;;;-146.30;100.00;58188.94;10392925;28;20045;-90
2024/01/23 21:41:01;;;;;;;0.52;0.40;;;;;;;-146.30;100.00;58188.94;10377338;28;20091;-92
2024/01/23 21:46:03;;;;;;;1.00;0.50;;;;;;;-146.30;100.00;58188.94;10395348;28;20052;-89
2024/01/23 21:51:06;;;;;;;0.22;0.20;;;;;;;-146.30;100.00;58188.94;10375825;28;20049;-89
2024/01/23 21:56:09;;;;;;;0.10;0.10;;;;;;;-146.30;100.00;58188.94;10389086;28;20049;-89
2024/01/23 22:01:15;;;;;;;0.50;0.20;;;;;;;-146.30;100.00;58188.94;10387605;28;20054;-91
2024/01/23 22:06:16;;;;;;;7.68;1.20;;;;;;;-146.30;100.00;58188.94;10391657;28;20045;-89
2024/01/23 22:11:19;;;;;;;1.02;0.95;;;;;;;-146.30;100.00;58188.94;10364399;28;20046;-91
2024/01/23 22:16:21;;;;;;;0.73;0.40;;;;;;;-146.30;100.00;58188.94;10388337;28;20103;-89
2024/01/23 22:21:23;;;;;;;0.08;0.00;;;;;;;-146.30;100.00;58188.94;10371715;28;20055;-89
2024/01/23 22:26:25;;;;;;;0.05;0.03;;;;;;;-146.30;100.00;58188.94;10371496;28;20046;-91
2024/01/23 22:31:26;;;;;;;2.05;0.30;;;;;;;-146.30;100.00;58188.94;10373119;28;20050;-91
2024/01/23 22:36:28;;;;;;;0.70;0.20;;;;;;;-146.30;100.00;58188.94;10389606;28;20050;-87
2024/01/23 22:41:30;;;;;;;1.15;1.05;;;;;;;-146.30;100.00;58188.94;10354260;28;20563;-90